Time;durP1;ratioP1;P1;durP2;ratioP2;P2;SDS_P1;SDS_P2;PMS_P1;PMS_P2;Temp;Humidity;BMP_temperature;BMP_pressure;BME280_temperature;BME280_humidity;BME280_pressure;Samples;Min_cycle;Max_cycle;Signal;HPM_P1;HPM_P2
2023/01/24 00:00:30;;;;;;;42.60;19.20;;;;;;;;;;4998298;28;20026;-91
2023/01/24 00:02:56;;;;;;;41.57;19.50;;;;;;;;;;4998584;28;20034;-91
2023/01/24 00:05:21;;;;;;;45.93;19.13;;;;;;;;;;5015670;28;20111;-91
2023/01/24 00:07:46;;;;;;;41.73;18.63;;;;;;;;;;5016082;28;20020;-91
2023/01/24 00:10:11;;;;;;;46.00;19.63;;;;;;;;;;5014973;28;20041;-90
2023/01/24 00:12:36;;;;;;;37.30;15.87;;;;;;;;;;4998331;28;20100;-91
2023/01/24 00:15:02;;;;;;;44.43;17.77;;;;;;;;;;4998003;28;20080;-92
2023/01/24 00:17:27;;;;;;;39.77;18.23;;;;;;;;;;5015750;28;20045;-91
2023/01/24 00:19:52;;;;;;;42.47;17.93;;;;;;;;;;5014589;28;20014;-91
2023/01/24 00:22:17;;;;;;;38.57;17.67;;;;;;;;;;4993830;28;20077;-90
2023/01/24 00:24:43;;;;;;;37.97;16.57;;;;;;;;;;4989601;28;20100;-92
2023/01/24 00:27:08;;;;;;;35.87;16.63;;;;;;;;;;5015417;28;20466;-91
2023/01/24 00:29:33;;;;;;;36.03;16.10;;;;;;;;;;4997828;28;20025;-91
2023/01/24 00:31:58;;;;;;;38.53;17.20;;;;;;;;;;4997879;28;20088;-91
2023/01/24 00:34:24;;;;;;;32.47;14.60;;;;;;;;;;4997391;28;20117;-90
2023/01/24 00:36:49;;;;;;;30.90;13.10;;;;;;;;;;5015600;28;20018;-91
2023/01/24 00:39:14;;;;;;;31.93;13.50;;;;;;;;;;4997437;28;20096;-91
2023/01/24 00:41:39;;;;;;;34.33;14.73;;;;;;;;;;4997421;28;20022;-91
2023/01/24 00:44:04;;;;;;;34.73;15.23;;;;;;;;;;5014471;28;20010;-91
2023/01/24 00:46:30;;;;;;;29.87;13.53;;;;;;;;;;5014416;28;20018;-91
2023/01/24 00:48:55;;;;;;;28.17;13.40;;;;;;;;;;4997318;28;20029;-91
2023/01/24 00:51:20;;;;;;;28.00;12.37;;;;;;;;;;4997373;28;20033;-92
2023/01/24 00:53:45;;;;;;;31.30;14.70;;;;;;;;;;4997181;28;20489;-91
2023/01/24 00:56:11;;;;;;;32.03;14.33;;;;;;;;;;4997153;28;20041;-91
2023/01/24 00:58:36;;;;;;;36.37;12.67;;;;;;;;;;5013640;28;20493;-91
2023/01/24 01:01:04;;;;;;;33.53;15.17;;;;;;;;;;4996101;28;20022;-91
2023/01/24 01:03:29;;;;;;;35.83;14.17;;;;;;;;;;4996788;28;20109;-91
2023/01/24 01:05:59;;;;;;;30.53;14.30;;;;;;;;;;4997368;28;20090;-90
2023/01/24 01:08:24;;;;;;;29.07;13.63;;;;;;;;;;4997203;28;20112;-91
2023/01/24 01:10:50;;;;;;;32.50;14.40;;;;;;;;;;5014086;28;20477;-91
2023/01/24 01:13:15;;;;;;;30.50;14.47;;;;;;;;;;4996848;28;20026;-91
2023/01/24 01:15:40;;;;;;;30.40;14.57;;;;;;;;;;4997187;28;20471;-91
2023/01/24 01:18:05;;;;;;;31.90;15.30;;;;;;;;;;5013313;28;20026;-92
2023/01/24 01:20:30;;;;;;;33.00;14.70;;;;;;;;;;5014374;28;20034;-91
2023/01/24 01:22:56;;;;;;;36.13;15.57;;;;;;;;;;5013525;28;20026;-90
2023/01/24 01:25:21;;;;;;;21.43;8.80;;;;;;;;;;4996644;28;20029;-91
2023/01/24 01:27:46;;;;;;;30.17;12.87;;;;;;;;;;4995592;28;20109;-92
2023/01/24 01:30:11;;;;;;;32.30;14.93;;;;;;;;;;5013946;28;20022;-91
2023/01/24 01:32:37;;;;;;;32.47;14.13;;;;;;;;;;5014311;28;20418;-91
2023/01/24 01:35:02;;;;;;;32.90;14.83;;;;;;;;;;4995971;28;20022;-92
2023/01/24 01:37:27;;;;;;;29.07;14.43;;;;;;;;;;4996706;28;20485;-91
2023/01/24 01:39:52;;;;;;;28.97;12.80;;;;;;;;;;4996486;28;20045;-89
2023/01/24 01:42:17;;;;;;;25.43;11.07;;;;;;;;;;5014233;28;20466;-92
2023/01/24 01:44:47;;;;;;;30.37;13.03;;;;;;;;;;4996377;28;20076;-91
2023/01/24 01:47:18;;;;;;;28.27;12.67;;;;;;;;;;5013284;28;20017;-91
2023/01/24 01:50:02;;;;;;;29.57;13.50;;;;;;;;;;4992919;28;20038;-91
2023/01/24 01:52:28;;;;;;;33.00;14.17;;;;;;;;;;5010136;28;20040;-91
2023/01/24 01:54:56;;;;;;;34.87;15.73;;;;;;;;;;4996024;28;20113;-91
2023/01/24 01:57:23;;;;;;;30.40;14.03;;;;;;;;;;5013713;28;20026;-92
2023/01/24 01:59:54;;;;;;;30.67;14.17;;;;;;;;;;4995167;28;20034;-91
2023/01/24 02:02:20;;;;;;;29.27;14.67;;;;;;;;;;4996104;28;20076;-91
2023/01/24 02:04:47;;;;;;;31.37;13.87;;;;;;;;;;4996049;28;20020;-91
2023/01/24 02:07:16;;;;;;;28.53;13.73;;;;;;;;;;5012479;28;20024;-91
2023/01/24 02:09:42;;;;;;;29.17;13.87;;;;;;;;;;4996252;28;20052;-91
2023/01/24 02:12:12;;;;;;;26.17;11.53;;;;;;;;;;4993698;28;20076;-91
2023/01/24 02:17:22;;;;;;;28.50;13.63;;;;;;;;;;5001004;28;20064;-91
2023/01/24 02:19:57;;;;;;;27.17;12.73;;;;;;;;;;5013365;28;20409;-91
2023/01/24 02:22:25;;;;;;;26.07;12.60;;;;;;;;;;5006298;28;20060;-91
2023/01/24 02:25:05;;;;;;;31.80;13.70;;;;;;;;;;5009917;28;20037;-91
2023/01/24 02:27:30;;;;;;;25.07;12.63;;;;;;;;;;5000078;28;20022;-91
2023/01/24 02:29:55;;;;;;;29.23;13.00;;;;;;;;;;5013053;28;20029;-91
2023/01/24 02:32:21;;;;;;;27.07;13.10;;;;;;;;;;4994905;28;20029;-91
2023/01/24 02:34:46;;;;;;;27.10;13.07;;;;;;;;;;4995488;28;20481;-91
2023/01/24 02:37:12;;;;;;;27.50;13.00;;;;;;;;;;5013080;28;20017;-91
2023/01/24 02:39:45;;;;;;;28.47;12.83;;;;;;;;;;4995295;28;20119;-92
2023/01/24 02:42:12;;;;;;;22.70;10.20;;;;;;;;;;5013076;28;20028;-92
2023/01/24 02:44:53;;;;;;;24.70;11.30;;;;;;;;;;5010941;28;20026;-92
2023/01/24 02:47:18;;;;;;;25.13;12.13;;;;;;;;;;4994880;28;20026;-91
2023/01/24 02:49:43;;;;;;;27.07;12.03;;;;;;;;;;4995476;28;20073;-91
2023/01/24 02:54:53;;;;;;;21.87;10.23;;;;;;;;;;5012382;28;20145;-91
2023/01/24 03:00:03;;;;;;;25.93;11.37;;;;;;;;;;5013070;28;20328;-92
2023/01/24 03:02:28;;;;;;;23.33;11.43;;;;;;;;;;5013118;28;20026;-91
2023/01/24 03:04:53;;;;;;;24.63;10.80;;;;;;;;;;5012722;28;20052;-91
2023/01/24 03:07:18;;;;;;;21.70;9.33;;;;;;;;;;4994381;28;20462;-91
2023/01/24 03:09:47;;;;;;;20.77;10.43;;;;;;;;;;4995011;28;20052;-92
2023/01/24 03:36:51;;;;;;;21.93;11.10;;;;;;;;;;5016722;28;20048;-91
2023/01/24 03:42:00;;;;;;;23.97;11.77;;;;;;;;;;5016610;28;20740;-91
2023/01/24 03:44:26;;;;;;;21.67;10.23;;;;;;;;;;5015428;28;20160;-91
2023/01/24 03:46:51;;;;;;;22.83;11.43;;;;;;;;;;5016052;28;20014;-91
2023/01/24 03:49:16;;;;;;;25.37;12.03;;;;;;;;;;4998715;28;20081;-91
2023/01/24 03:54:25;;;;;;;23.90;10.63;;;;;;;;;;5015944;28;20084;-92
2023/01/24 03:56:51;;;;;;;22.43;10.80;;;;;;;;;;5014628;28;20018;-92
2023/01/24 03:59:16;;;;;;;22.13;9.57;;;;;;;;;;5015988;28;20014;-92
2023/01/24 04:01:41;;;;;;;25.50;11.13;;;;;;;;;;4998809;28;20022;-92
2023/01/24 04:04:07;;;;;;;23.40;11.30;;;;;;;;;;5015578;28;20022;-91
2023/01/24 04:06:32;;;;;;;26.83;11.83;;;;;;;;;;4998013;28;20026;-91
2023/01/24 04:08:57;;;;;;;23.37;11.00;;;;;;;;;;4998116;28;20056;-91
2023/01/24 04:11:22;;;;;;;24.40;11.60;;;;;;;;;;5016194;28;20022;-91
2023/01/24 04:13:47;;;;;;;25.57;12.33;;;;;;;;;;4998217;28;20495;-91
2023/01/24 04:16:14;;;;;;;30.70;14.13;;;;;;;;;;4998270;28;20032;-92
2023/01/24 04:18:39;;;;;;;27.73;13.43;;;;;;;;;;4997263;28;20029;-91
2023/01/24 04:21:05;;;;;;;29.03;12.00;;;;;;;;;;4997988;28;20022;-92
2023/01/24 04:23:30;;;;;;;30.23;13.97;;;;;;;;;;4998176;28;20120;-91
2023/01/24 04:25:57;;;;;;;24.30;11.17;;;;;;;;;;5015842;28;20056;-91
2023/01/24 04:28:23;;;;;;;31.47;13.93;;;;;;;;;;4998273;28;20018;-91
2023/01/24 04:30:48;;;;;;;24.73;11.80;;;;;;;;;;5014976;28;20105;-91
2023/01/24 04:33:14;;;;;;;32.90;12.97;;;;;;;;;;4997967;28;20461;-91
2023/01/24 04:35:39;;;;;;;27.73;12.17;;;;;;;;;;5015027;28;20018;-92
2023/01/24 04:38:04;;;;;;;25.10;10.93;;;;;;;;;;4998122;28;20076;-92
2023/01/24 04:40:29;;;;;;;24.47;12.17;;;;;;;;;;5013967;28;20037;-91
2023/01/24 04:42:56;;;;;;;30.80;14.73;;;;;;;;;;4996914;28;20117;-92
2023/01/24 04:45:21;;;;;;;26.40;12.63;;;;;;;;;;4997717;28;20026;-92
2023/01/24 04:47:46;;;;;;;32.03;15.07;;;;;;;;;;4997946;28;20050;-92
2023/01/24 04:50:12;;;;;;;32.80;14.93;;;;;;;;;;5015065;28;20014;-91
2023/01/24 04:52:37;;;;;;;32.07;15.20;;;;;;;;;;5014762;28;20112;-91
2023/01/24 04:55:02;;;;;;;29.27;12.23;;;;;;;;;;5014210;28;20050;-91
2023/01/24 04:57:28;;;;;;;33.47;14.30;;;;;;;;;;5013890;28;20029;-91
2023/01/24 04:59:53;;;;;;;32.90;14.77;;;;;;;;;;5014029;28;20476;-91
2023/01/24 05:02:18;;;;;;;36.63;16.13;;;;;;;;;;5013974;28;20037;-91
2023/01/24 05:04:43;;;;;;;36.07;16.00;;;;;;;;;;4997292;28;20041;-92
2023/01/24 05:07:09;;;;;;;32.80;13.73;;;;;;;;;;5003694;28;20026;-91
2023/01/24 05:09:34;;;;;;;36.33;17.00;;;;;;;;;;4997255;28;20010;-91
2023/01/24 05:11:59;;;;;;;35.10;16.13;;;;;;;;;;4997236;28;20076;-92
2023/01/24 05:14:24;;;;;;;38.50;16.97;;;;;;;;;;5013521;28;20033;-91
2023/01/24 05:16:50;;;;;;;36.17;14.97;;;;;;;;;;4997110;28;20465;-91
2023/01/24 05:19:15;;;;;;;29.10;13.33;;;;;;;;;;5013937;28;20469;-91
2023/01/24 05:21:40;;;;;;;34.67;16.30;;;;;;;;;;4997130;28;20033;-91
2023/01/24 05:24:05;;;;;;;35.30;15.67;;;;;;;;;;4996644;28;20018;-91
2023/01/24 05:26:31;;;;;;;38.30;17.23;;;;;;;;;;4997257;28;20036;-91
2023/01/24 05:28:56;;;;;;;39.60;18.33;;;;;;;;;;5014511;28;20111;-91
2023/01/24 05:31:21;;;;;;;37.00;17.27;;;;;;;;;;5013626;28;20125;-91
2023/01/24 05:33:46;;;;;;;41.70;18.30;;;;;;;;;;4996780;28;20087;-91
2023/01/24 05:36:16;;;;;;;42.37;18.23;;;;;;;;;;4996989;28;20032;-91
2023/01/24 05:38:42;;;;;;;40.33;17.97;;;;;;;;;;5013070;28;20022;-91
2023/01/24 05:41:08;;;;;;;37.10;18.63;;;;;;;;;;5014242;28;20034;-91
2023/01/24 05:43:34;;;;;;;38.70;17.93;;;;;;;;;;5013430;28;20124;-91
2023/01/24 05:46:06;;;;;;;31.00;13.23;;;;;;;;;;5013644;28;20418;-91
2023/01/24 05:48:32;;;;;;;35.23;16.17;;;;;;;;;;5014132;28;20022;-91
2023/01/24 05:50:58;;;;;;;31.90;13.87;;;;;;;;;;4996562;28;20018;-91
2023/01/24 05:53:24;;;;;;;38.10;16.87;;;;;;;;;;4996479;28;20477;-91
2023/01/24 05:56:00;;;;;;;37.00;15.90;;;;;;;;;;4995855;28;20044;-91
2023/01/24 05:58:25;;;;;;;40.53;17.93;;;;;;;;;;4996146;28;20022;-91
2023/01/24 06:00:51;;;;;;;41.57;19.40;;;;;;;;;;4996598;28;20400;-91
2023/01/24 06:03:16;;;;;;;44.37;20.30;;;;;;;;;;4996001;28;20025;-91
2023/01/24 06:05:48;;;;;;;35.77;15.17;;;;;;;;;;4996167;28;20021;-91
2023/01/24 06:08:13;;;;;;;30.10;12.27;;;;;;;;;;4995357;28;20053;-92
2023/01/24 06:10:39;;;;;;;44.37;20.17;;;;;;;;;;4996023;28;20432;-90
2023/01/24 06:13:04;;;;;;;36.20;17.67;;;;;;;;;;4996066;28;20109;-92
2023/01/24 06:15:29;;;;;;;45.60;20.67;;;;;;;;;;5013285;28;20022;-91
2023/01/24 06:17:54;;;;;;;39.83;17.83;;;;;;;;;;5011850;28;20026;-91
2023/01/24 06:20:19;;;;;;;48.00;20.53;;;;;;;;;;4996030;28;20058;-91
2023/01/24 06:22:48;;;;;;;38.90;16.57;;;;;;;;;;4995842;28;20429;-91
2023/01/24 06:25:18;;;;;;;40.90;18.20;;;;;;;;;;5012236;28;20041;-91
2023/01/24 06:27:43;;;;;;;47.10;20.23;;;;;;;;;;4995374;28;20067;-91
2023/01/24 06:30:11;;;;;;;38.73;16.60;;;;;;;;;;5013169;28;20381;-91
2023/01/24 06:32:45;;;;;;;43.67;19.00;;;;;;;;;;4995531;28;20073;-91
2023/01/24 06:35:13;;;;;;;46.80;21.03;;;;;;;;;;5013361;28;20061;-91
2023/01/24 06:37:46;;;;;;;38.17;16.80;;;;;;;;;;4995658;28;20026;-91
2023/01/24 06:40:13;;;;;;;37.67;16.40;;;;;;;;;;5011798;28;20040;-91
2023/01/24 06:42:38;;;;;;;47.23;19.77;;;;;;;;;;4995285;28;20346;-91
2023/01/24 06:45:04;;;;;;;41.43;17.27;;;;;;;;;;4995261;28;20013;-91
2023/01/24 06:47:29;;;;;;;31.23;15.03;;;;;;;;;;5012570;28;20018;-91
2023/01/24 06:49:54;;;;;;;40.47;17.73;;;;;;;;;;4995446;28;20161;-92
2023/01/24 06:52:20;;;;;;;37.93;18.03;;;;;;;;;;4995528;28;20029;-92
2023/01/24 06:54:45;;;;;;;41.10;17.77;;;;;;;;;;4995359;28;20469;-91
2023/01/24 06:57:10;;;;;;;36.00;17.97;;;;;;;;;;4994972;28;20061;-91
2023/01/24 06:59:35;;;;;;;43.47;19.83;;;;;;;;;;5013089;28;20088;-92
2023/01/24 07:02:01;;;;;;;45.40;20.33;;;;;;;;;;5012923;28;20014;-91
2023/01/24 07:04:26;;;;;;;36.00;16.90;;;;;;;;;;5012779;28;20096;-91
2023/01/24 07:06:54;;;;;;;36.90;17.13;;;;;;;;;;4995378;28;20021;-91
2023/01/24 07:09:20;;;;;;;44.87;19.60;;;;;;;;;;4994781;28;20053;-91
2023/01/24 07:11:47;;;;;;;29.03;13.00;;;;;;;;;;4995185;28;20033;-91
2023/01/24 07:14:12;;;;;;;37.47;16.80;;;;;;;;;;5011543;28;20018;-91
2023/01/24 07:16:38;;;;;;;35.13;15.37;;;;;;;;;;5011816;28;20018;-91
2023/01/24 07:19:03;;;;;;;36.47;17.03;;;;;;;;;;4995257;28;20025;-91
2023/01/24 07:21:28;;;;;;;27.57;12.23;;;;;;;;;;5010763;28;20026;-92
2023/01/24 07:23:55;;;;;;;35.90;17.77;;;;;;;;;;4995112;28;20026;-91
2023/01/24 07:26:21;;;;;;;38.80;19.10;;;;;;;;;;5012680;28;20037;-91
2023/01/24 07:28:46;;;;;;;29.53;12.73;;;;;;;;;;5012845;28;20025;-91
2023/01/24 07:31:12;;;;;;;26.57;11.67;;;;;;;;;;5012571;28;20110;-91
2023/01/24 07:33:38;;;;;;;28.70;13.77;;;;;;;;;;5012271;28;20614;-91
2023/01/24 07:36:13;;;;;;;23.50;10.77;;;;;;;;;;5012511;28;20068;-91
2023/01/24 07:38:38;;;;;;;29.73;13.73;;;;;;;;;;5012474;28;20022;-91
2023/01/24 07:41:08;;;;;;;24.93;11.50;;;;;;;;;;4994942;28;20388;-91
2023/01/24 07:43:33;;;;;;;28.47;14.53;;;;;;;;;;4994971;28;20050;-91
2023/01/24 07:45:58;;;;;;;31.70;15.50;;;;;;;;;;5009210;28;20018;-91
2023/01/24 07:48:23;;;;;;;34.13;14.80;;;;;;;;;;5012084;28;20128;-91
2023/01/24 07:50:48;;;;;;;25.03;12.27;;;;;;;;;;4994924;28;20022;-91
2023/01/24 07:53:13;;;;;;;34.90;16.63;;;;;;;;;;5012730;28;20050;-91
2023/01/24 07:55:39;;;;;;;31.87;15.70;;;;;;;;;;4995010;28;20116;-91
2023/01/24 07:58:04;;;;;;;30.57;15.60;;;;;;;;;;5007480;28;20018;-91
2023/01/24 08:00:29;;;;;;;37.27;14.83;;;;;;;;;;5012361;28;20026;-91
2023/01/24 08:02:55;;;;;;;33.70;16.53;;;;;;;;;;4995023;28;20038;-91
2023/01/24 08:05:20;;;;;;;40.40;17.60;;;;;;;;;;4994742;28;20102;-90
2023/01/24 08:07:45;;;;;;;35.67;16.20;;;;;;;;;;5012416;28;20434;-91
2023/01/24 08:10:11;;;;;;;37.50;18.27;;;;;;;;;;5013534;28;20022;-91
2023/01/24 08:12:36;;;;;;;32.47;13.23;;;;;;;;;;5015818;28;20022;-91
2023/01/24 08:15:01;;;;;;;37.37;17.67;;;;;;;;;;4998063;28;20026;-91
2023/01/24 08:17:26;;;;;;;28.97;13.60;;;;;;;;;;5015849;28;20018;-91
2023/01/24 08:19:51;;;;;;;44.33;19.27;;;;;;;;;;4998135;28;20025;-91
2023/01/24 08:22:17;;;;;;;40.07;18.53;;;;;;;;;;4997609;28;20034;-91
2023/01/24 08:24:42;;;;;;;33.20;16.10;;;;;;;;;;5015491;28;20473;-91
2023/01/24 08:27:07;;;;;;;34.33;16.23;;;;;;;;;;5013304;28;20091;-91
2023/01/24 08:29:32;;;;;;;41.97;18.40;;;;;;;;;;5014895;28;20104;-91
2023/01/24 08:31:58;;;;;;;33.63;16.23;;;;;;;;;;4998102;28;20100;-91
2023/01/24 08:34:23;;;;;;;43.00;18.70;;;;;;;;;;4994634;28;20567;-91
2023/01/24 08:36:48;;;;;;;41.40;19.70;;;;;;;;;;4997357;28;20025;-91
2023/01/24 08:39:13;;;;;;;36.70;17.70;;;;;;;;;;4996887;28;20400;-91
2023/01/24 08:41:40;;;;;;;39.57;18.63;;;;;;;;;;4997544;28;20534;-91
2023/01/24 08:44:05;;;;;;;40.50;18.57;;;;;;;;;;4997709;28;20362;-91
2023/01/24 08:46:31;;;;;;;43.77;20.83;;;;;;;;;;4997623;28;20017;-91
2023/01/24 08:48:56;;;;;;;46.80;21.43;;;;;;;;;;4996823;28;20040;-91
2023/01/24 08:51:21;;;;;;;43.30;20.20;;;;;;;;;;4995146;28;20029;-91
2023/01/24 08:53:47;;;;;;;46.20;22.20;;;;;;;;;;4997530;28;20025;-91
2023/01/24 08:56:12;;;;;;;46.07;21.33;;;;;;;;;;4997682;28;20018;-91
2023/01/24 08:58:37;;;;;;;49.70;22.17;;;;;;;;;;5002864;28;20064;-91
2023/01/24 09:01:06;;;;;;;39.83;18.07;;;;;;;;;;4997548;28;20044;-91
2023/01/24 09:03:31;;;;;;;41.17;19.33;;;;;;;;;;4996985;28;20048;-91
2023/01/24 09:06:00;;;;;;;39.23;17.30;;;;;;;;;;4997209;28;20022;-91
2023/01/24 09:08:25;;;;;;;40.43;17.90;;;;;;;;;;4996481;28;20025;-91
2023/01/24 09:10:51;;;;;;;45.40;20.03;;;;;;;;;;4997395;28;20030;-91
2023/01/24 09:13:16;;;;;;;42.77;19.70;;;;;;;;;;5014846;28;20052;-91
2023/01/24 09:15:41;;;;;;;43.43;20.47;;;;;;;;;;5014667;28;20111;-91
2023/01/24 09:18:06;;;;;;;44.57;21.40;;;;;;;;;;5011817;28;20535;-91
2023/01/24 09:20:32;;;;;;;42.77;19.37;;;;;;;;;;5013789;28;20033;-91
2023/01/24 09:22:57;;;;;;;36.63;17.03;;;;;;;;;;4996826;28;20013;-91
2023/01/24 09:25:22;;;;;;;32.83;15.03;;;;;;;;;;5014557;28;20129;-91
2023/01/24 09:27:54;;;;;;;33.87;15.67;;;;;;;;;;4996255;28;20022;-92
2023/01/24 09:30:20;;;;;;;40.13;16.75;;;;;;;;;;4996805;28;20021;-91
2023/01/24 09:32:45;;;;;;;30.17;14.20;;;;;;;;;;4996278;28;20370;-91
2023/01/24 09:35:11;;;;;;;39.20;17.50;;;;;;;;;;5012317;28;20068;-91
2023/01/24 09:37:36;;;;;;;37.43;18.70;;;;;;;;;;4996938;28;20168;-92
2023/01/24 09:40:01;;;;;;;33.30;15.13;;;;;;;;;;4996762;28;20189;-91
2023/01/24 09:42:29;;;;;;;37.70;17.93;;;;;;;;;;5014171;28;20018;-91
2023/01/24 09:44:55;;;;;;;31.63;13.75;;;;;;;;;;4995813;28;20109;-92
2023/01/24 09:47:22;;;;;;;38.13;18.30;;;;;;;;;;5014276;28;20468;-92
2023/01/24 09:49:55;;;;;;;38.70;18.87;;;;;;;;;;4996602;28;20024;-91
2023/01/24 09:52:24;;;;;;;38.37;15.97;;;;;;;;;;5014163;28;20017;-91
2023/01/24 09:55:16;;;;;;;35.50;16.60;;;;;;;;;;4996110;28;20433;-91
2023/01/24 09:57:41;;;;;;;38.07;18.23;;;;;;;;;;4992535;28;20054;-92
2023/01/24 10:00:14;;;;;;;38.07;17.90;;;;;;;;;;4995872;28;20267;-91
2023/01/24 10:02:39;;;;;;;38.40;18.88;;;;;;;;;;4996168;28;20105;-91
2023/01/24 10:05:05;;;;;;;43.55;19.67;;;;;;;;;;4996249;28;20481;-92
2023/01/24 10:07:48;;;;;;;41.23;18.10;;;;;;;;;;4996548;28;20052;-92
2023/01/24 10:10:28;;;;;;;30.33;14.40;;;;;;;;;;4994680;28;20029;-91
2023/01/24 10:12:59;;;;;;;40.97;19.17;;;;;;;;;;5013648;28;20056;-91
2023/01/24 10:15:30;;;;;;;32.47;12.90;;;;;;;;;;4996050;28;20049;-91
2023/01/24 10:18:10;;;;;;;29.23;14.30;;;;;;;;;;4996177;28;20030;-91
2023/01/24 10:20:54;;;;;;;32.57;15.10;;;;;;;;;;4994940;28;20060;-91
2023/01/24 10:23:23;;;;;;;33.70;15.80;;;;;;;;;;4996061;28;20477;-91
2023/01/24 10:25:49;;;;;;;37.13;18.10;;;;;;;;;;4994149;28;20030;-91
2023/01/24 10:28:19;;;;;;;39.20;19.27;;;;;;;;;;5011338;28;20481;-91
2023/01/24 10:31:04;;;;;;;37.97;17.80;;;;;;;;;;4995481;28;20018;-91
2023/01/24 10:33:47;;;;;;;35.00;17.13;;;;;;;;;;4983669;28;20088;-91
2023/01/24 10:36:16;;;;;;;38.50;17.43;;;;;;;;;;4995641;28;20032;-91
2023/01/24 10:38:42;;;;;;;36.73;16.80;;;;;;;;;;5012548;28;20030;-91
2023/01/24 10:41:22;;;;;;;31.03;15.07;;;;;;;;;;5012505;28;20084;-91
2023/01/24 10:43:54;;;;;;;35.70;15.50;;;;;;;;;;4995425;28;20053;-91
2023/01/24 10:46:19;;;;;;;35.47;15.95;;;;;;;;;;5013025;28;20106;-92
2023/01/24 10:48:45;;;;;;;33.30;16.47;;;;;;;;;;4995519;28;20106;-91
2023/01/24 10:51:18;;;;;;;29.73;13.97;;;;;;;;;;5012153;28;20053;-91
2023/01/24 10:53:43;;;;;;;41.45;17.83;;;;;;;;;;4995388;28;20469;-91
2023/01/24 10:56:09;;;;;;;36.73;18.00;;;;;;;;;;4995657;28;20064;-91
2023/01/24 10:58:53;;;;;;;34.93;16.60;;;;;;;;;;5010579;28;20041;-91
2023/01/24 11:01:21;;;;;;;35.92;16.20;;;;;;;;;;5012591;28;20482;-91
2023/01/24 11:03:47;;;;;;;35.23;16.60;;;;;;;;;;4994996;28;20421;-91
2023/01/24 11:06:22;;;;;;;34.37;16.97;;;;;;;;;;4995419;28;20105;-91
2023/01/24 11:08:52;;;;;;;33.37;15.97;;;;;;;;;;4995227;28;20079;-92
2023/01/24 11:11:20;;;;;;;30.63;15.43;;;;;;;;;;5011704;28;20022;-91
2023/01/24 11:13:45;;;;;;;36.03;15.80;;;;;;;;;;4995371;28;20022;-91
2023/01/24 11:16:17;;;;;;;35.70;16.67;;;;;;;;;;4995536;28;20089;-92
2023/01/24 11:18:51;;;;;;;35.03;15.77;;;;;;;;;;4995099;28;20022;-91
2023/01/24 11:21:17;;;;;;;31.60;15.53;;;;;;;;;;4994336;28;20033;-91
2023/01/24 11:23:43;;;;;;;31.97;14.80;;;;;;;;;;4995076;28;20022;-91
2023/01/24 11:26:23;;;;;;;36.70;18.87;;;;;;;;;;5012826;28;20064;-91
2023/01/24 11:29:15;;;;;;;35.50;16.07;;;;;;;;;;4995242;28;20006;-91
2023/01/24 11:31:54;;;;;;;39.87;17.87;;;;;;;;;;4992860;28;20052;-91
2023/01/24 11:34:24;;;;;;;34.83;16.47;;;;;;;;;;4995079;28;20258;-92
2023/01/24 11:37:08;;;;;;;37.37;16.70;;;;;;;;;;5012782;28;20018;-91
2023/01/24 11:39:42;;;;;;;36.20;16.40;;;;;;;;;;5012451;28;20032;-91
2023/01/24 11:42:26;;;;;;;34.93;16.63;;;;;;;;;;4995157;28;20014;-91
2023/01/24 11:45:21;;;;;;;33.57;15.53;;;;;;;;;;4996051;28;20057;-91
2023/01/24 11:47:54;;;;;;;34.87;15.53;;;;;;;;;;4999412;28;20057;-91
2023/01/24 11:50:20;;;;;;;37.13;16.57;;;;;;;;;;4998899;28;20030;-91
2023/01/24 11:53:24;;;;;;;34.10;16.73;;;;;;;;;;4998839;28;20101;-91
2023/01/24 11:56:08;;;;;;;27.38;12.20;;;;;;;;;;4939056;29;20026;-91
2023/01/24 11:58:59;;;;;;;34.37;15.33;;;;;;;;;;4955273;28;20027;-91
2023/01/24 12:01:24;;;;;;;40.53;17.77;;;;;;;;;;4988310;28;20345;-91
2023/01/24 12:03:50;;;;;;;39.00;17.83;;;;;;;;;;4995356;28;20113;-92
2023/01/24 12:06:36;;;;;;;37.20;17.50;;;;;;;;;;5007999;28;20010;-91
2023/01/24 12:09:21;;;;;;;46.83;20.97;;;;;;;;;;4996397;28;20530;-90
2023/01/24 12:11:57;;;;;;;33.97;17.33;;;;;;;;;;4998296;28;20426;-92
2023/01/24 12:14:34;;;;;;;35.70;17.13;;;;;;;;;;4998646;28;20041;-91
2023/01/24 12:17:26;;;;;;;45.57;20.73;;;;;;;;;;5014432;28;20024;-91
2023/01/24 12:19:58;;;;;;;39.63;17.63;;;;;;;;;;4995218;28;20037;-91
2023/01/24 12:22:25;;;;;;;37.27;17.57;;;;;;;;;;4998467;28;20364;-91
2023/01/24 12:24:56;;;;;;;32.20;15.63;;;;;;;;;;4997739;28;20060;-91
2023/01/24 12:27:24;;;;;;;37.27;16.67;;;;;;;;;;5014761;28;20184;-91
2023/01/24 12:30:05;;;;;;;37.87;16.83;;;;;;;;;;5015716;28;20051;-91
2023/01/24 12:32:40;;;;;;;30.40;15.77;;;;;;;;;;4998210;28;20480;-91
2023/01/24 12:35:26;;;;;;;33.87;17.10;;;;;;;;;;5014990;28;20469;-91
2023/01/24 12:37:54;;;;;;;39.77;18.77;;;;;;;;;;4998046;28;20018;-91
2023/01/24 12:40:22;;;;;;;34.67;15.87;;;;;;;;;;4997882;28;20040;-90
2023/01/24 12:43:05;;;;;;;40.43;18.03;;;;;;;;;;4997679;28;20441;-91
2023/01/24 12:45:40;;;;;;;30.03;13.60;;;;;;;;;;5015422;28;20509;-91
2023/01/24 12:48:17;;;;;;;31.53;14.43;;;;;;;;;;4997035;28;20026;-91
2023/01/24 12:50:43;;;;;;;32.37;15.90;;;;;;;;;;4997854;28;20056;-90
2023/01/24 12:53:12;;;;;;;34.77;16.30;;;;;;;;;;4997650;28;20038;-91
2023/01/24 12:55:47;;;;;;;38.30;17.63;;;;;;;;;;4997464;28;20049;-91
2023/01/24 12:58:26;;;;;;;30.75;16.13;;;;;;;;;;5015218;28;20018;-91
2023/01/24 13:01:01;;;;;;;41.27;19.43;;;;;;;;;;4996785;28;20030;-91
2023/01/24 13:03:45;;;;;;;37.50;18.07;;;;;;;;;;4997347;28;20029;-91
2023/01/24 13:06:20;;;;;;;36.63;16.97;;;;;;;;;;5015293;28;20073;-91
2023/01/24 13:08:57;;;;;;;36.47;17.90;;;;;;;;;;5013626;28;20484;-91
2023/01/24 13:11:24;;;;;;;34.17;16.13;;;;;;;;;;5013935;28;20101;-91
2023/01/24 13:13:56;;;;;;;35.03;16.50;;;;;;;;;;4997373;28;20029;-91
2023/01/24 13:16:21;;;;;;;;;;;;;;;;;;5015224;28;20129;-91
2023/01/24 13:18:46;;;;;;;33.93;16.77;;;;;;;;;;5010073;28;19936;-91
2023/01/24 13:21:20;;;;;;;34.13;16.73;;;;;;;;;;4996920;28;20318;-90
2023/01/24 13:24:01;;;;;;;32.23;15.47;;;;;;;;;;4997196;28;20029;-91
2023/01/24 13:26:26;;;;;;;39.20;17.43;;;;;;;;;;4997219;28;20462;-91
2023/01/24 13:29:00;;;;;;;33.28;16.00;;;;;;;;;;4997116;28;20113;-91
2023/01/24 13:31:35;;;;;;;32.83;15.63;;;;;;;;;;4997292;28;20021;-91
2023/01/24 13:34:04;;;;;;;39.33;18.27;;;;;;;;;;4996610;28;20021;-91
2023/01/24 13:36:34;;;;;;;35.77;18.80;;;;;;;;;;5009992;28;20022;-91
2023/01/24 13:39:00;;;;;;;35.30;15.50;;;;;;;;;;4988097;28;20104;-91
2023/01/24 13:41:25;;;;;;;33.53;16.20;;;;;;;;;;5014024;28;20048;-91
2023/01/24 13:44:00;;;;;;;40.23;18.00;;;;;;;;;;4997000;28;20543;-91
2023/01/24 13:46:44;;;;;;;37.97;17.90;;;;;;;;;;4995999;28;20057;-90
2023/01/24 13:49:31;;;;;;;30.43;15.67;;;;;;;;;;4996488;28;20020;-91
2023/01/24 13:51:58;;;;;;;38.83;17.73;;;;;;;;;;5014168;28;20014;-91
2023/01/24 13:54:43;;;;;;;33.80;16.80;;;;;;;;;;4996958;28;20034;-91
2023/01/24 13:57:08;;;;;;;31.93;16.17;;;;;;;;;;4993869;28;20100;-91
2023/01/24 13:59:36;;;;;;;38.70;18.33;;;;;;;;;;5014100;28;20374;-91
2023/01/24 14:02:02;;;;;;;35.60;16.87;;;;;;;;;;5013360;28;20426;-91
2023/01/24 14:04:40;;;;;;;41.53;19.43;;;;;;;;;;4996427;28;20116;-90
2023/01/24 14:07:24;;;;;;;30.30;13.80;;;;;;;;;;4995215;28;20536;-91
2023/01/24 14:09:56;;;;;;;31.57;14.37;;;;;;;;;;4996348;28;20030;-91
2023/01/24 14:12:21;;;;;;;36.85;16.75;;;;;;;;;;5014108;28;20100;-91
2023/01/24 14:14:58;;;;;;;34.90;17.53;;;;;;;;;;4996248;28;20072;-91
2023/01/24 14:17:28;;;;;;;35.90;17.13;;;;;;;;;;4996324;28;20022;-91
2023/01/24 14:19:55;;;;;;;40.20;17.33;;;;;;;;;;4995694;28;20068;-91
2023/01/24 14:22:22;;;;;;;35.77;17.93;;;;;;;;;;4996303;28;20022;-91
2023/01/24 14:25:16;;;;;;;40.97;18.57;;;;;;;;;;5013551;28;20014;-91
2023/01/24 14:27:49;;;;;;;35.47;17.30;;;;;;;;;;5013706;28;20446;-91
2023/01/24 14:30:17;;;;;;;31.23;14.60;;;;;;;;;;5013553;28;20030;-90
2023/01/24 14:32:52;;;;;;;36.87;17.87;;;;;;;;;;5012817;28;20076;-90
2023/01/24 14:35:23;;;;;;;38.63;18.97;;;;;;;;;;5011704;28;20041;-91
2023/01/24 14:37:49;;;;;;;39.50;17.37;;;;;;;;;;4995580;28;20048;-91
2023/01/24 14:40:17;;;;;;;35.47;17.37;;;;;;;;;;4995377;28;20030;-91
2023/01/24 14:42:42;;;;;;;34.47;17.63;;;;;;;;;;4995563;28;20028;-91
2023/01/24 14:45:15;;;;;;;38.40;18.70;;;;;;;;;;4995767;28;20018;-90
2023/01/24 14:47:41;;;;;;;36.13;17.80;;;;;;;;;;5012321;28;20033;-91
2023/01/24 14:50:18;;;;;;;40.27;18.17;;;;;;;;;;5012714;28;20018;-91
2023/01/24 14:52:43;;;;;;;31.67;14.13;;;;;;;;;;4995539;28;20111;-90
2023/01/24 14:55:26;;;;;;;36.50;17.80;;;;;;;;;;4995421;28;20085;-91
2023/01/24 14:57:51;;;;;;;36.23;17.27;;;;;;;;;;4995524;28;20018;-90
2023/01/24 15:00:17;;;;;;;40.30;20.13;;;;;;;;;;5008510;28;20431;-91
2023/01/24 15:02:53;;;;;;;32.97;14.93;;;;;;;;;;4995556;28;20018;-91
2023/01/24 15:05:31;;;;;;;40.37;18.20;;;;;;;;;;4995625;28;20081;-90